メインページ
METAR-TAF:

METAR-TAF

空港 :

ハルツーム, スーダン

ハルツーム国際空港

緯度: 15-36N, 経度: 032-33E, 海抜: 382m

現時点の気象観測

当レポートは14分前の01:30(UTC)に作成
の風 7kt
気温 19°C
湿度 32%
気圧 1012 hPa
視程10km以上
1,500メートル以下は雲なし、積乱雲なし

METAR: HSSS 180130Z 35007KT CAVOK 19/02 Q1012 NOSIG

時間: 04:44 (01:44 UTC)

予報

当レポートは2時間44分前の23:00(UTC)に作成
予報は18日の 00時(UTC)から 19日の 06時(UTC)まで有効
の風 10kt、最大20ktの突風を伴う
視程10km以上
1,500メートル以下は雲なし、積乱雲なし
18日の 03時(UTC)から 18日の 06時(UTC)まで一時的に
視程: 6000m

TAF: HSSS 172300Z 1800/1906 36010G20KT CAVOK TEMPO 1803/1806 6000

4,000以上の空港の気象観測と天気予報(METAR報とTAF報)

利用可能な観測所は地図上に黄色い丸と赤い丸で示す。

丸の上にカーソルを重ねると観測所名を参照できる。

次にクリックすると気象観測と天気予報を参照できる。

マップの切り替え:黒色「×」印の緑ボタンをクリックして拡大、「-」印の緑ボタンをクリックして縮小、緑色の三角印をクリックして隣りの地図に切り替え


METAR-TAF: